<?xml version="1.0" encoding="UTF-8" standalone="no" ?>
<gpx xmlns="http://www.topografix.com/GPX/1/1" xmlns:xsi="http://www.w3.org/2001/XMLSchema-instance" xsi:schemaLocation="http://www.topografix.com/GPX/1/1 http://www.topografix.com/GPX/1/1/gpx.xsd" version="1.1" creator="VisuGPX - https://www.visugpx.com">
  <metadata>
    <name>2019-07-06 17:52:03</name>
  </metadata>
  <trk>
    <name><![CDATA[2019-07-06 17:52:03]]></name>
    <trkseg>
      <trkpt lat="50.5632" lon="6.29629">
        <ele>359.67</ele>
        <time>2019-07-06T12:58:11Z</time>
      </trkpt>
      <trkpt lat="50.56319" lon="6.29621">
        <ele>360.63</ele>
        <time>2019-07-06T12:58:13Z</time>
      </trkpt>
      <trkpt lat="50.56317" lon="6.29609">
        <ele>361.59</ele>
        <time>2019-07-06T12:58:16Z</time>
      </trkpt>
      <trkpt lat="50.56312" lon="6.29574">
        <ele>365.44</ele>
        <time>2019-07-06T12:58:25Z</time>
      </trkpt>
      <trkpt lat="50.56307" lon="6.29537">
        <ele>368.8</ele>
        <time>2019-07-06T12:58:35Z</time>
      </trkpt>
      <trkpt lat="50.56314" lon="6.29508">
        <ele>372.17</ele>
        <time>2019-07-06T12:58:44Z</time>
      </trkpt>
      <trkpt lat="50.56333" lon="6.29495">
        <ele>375.53</ele>
        <time>2019-07-06T12:58:53Z</time>
      </trkpt>
      <trkpt lat="50.56347" lon="6.29473">
        <ele>378.42</ele>
        <time>2019-07-06T12:59:03Z</time>
      </trkpt>
      <trkpt lat="50.56356" lon="6.29436">
        <ele>381.78</ele>
        <time>2019-07-06T12:59:15Z</time>
      </trkpt>
      <trkpt lat="50.56359" lon="6.2939">
        <ele>385.15</ele>
        <time>2019-07-06T12:59:27Z</time>
      </trkpt>
      <trkpt lat="50.56361" lon="6.29354">
        <ele>388.03</ele>
        <time>2019-07-06T12:59:37Z</time>
      </trkpt>
      <trkpt lat="50.56361" lon="6.29313">
        <ele>391.39</ele>
        <time>2019-07-06T12:59:49Z</time>
      </trkpt>
      <trkpt lat="50.56361" lon="6.29284">
        <ele>394.76</ele>
        <time>2019-07-06T12:59:58Z</time>
      </trkpt>
      <trkpt lat="50.56363" lon="6.29253">
        <ele>397.64</ele>
        <time>2019-07-06T13:00:07Z</time>
      </trkpt>
      <trkpt lat="50.56362" lon="6.29217">
        <ele>400.53</ele>
        <time>2019-07-06T13:00:18Z</time>
      </trkpt>
      <trkpt lat="50.56361" lon="6.29189">
        <ele>403.89</ele>
        <time>2019-07-06T13:00:27Z</time>
      </trkpt>
      <trkpt lat="50.56361" lon="6.2915">
        <ele>407.26</ele>
        <time>2019-07-06T13:00:40Z</time>
      </trkpt>
      <trkpt lat="50.56371" lon="6.29118">
        <ele>410.14</ele>
        <time>2019-07-06T13:00:53Z</time>
      </trkpt>
      <trkpt lat="50.56382" lon="6.29087">
        <ele>413.02</ele>
        <time>2019-07-06T13:01:05Z</time>
      </trkpt>
      <trkpt lat="50.56397" lon="6.29054">
        <ele>415.91</ele>
        <time>2019-07-06T13:01:18Z</time>
      </trkpt>
      <trkpt lat="50.56409" lon="6.29023">
        <ele>419.27</ele>
        <time>2019-07-06T13:01:29Z</time>
      </trkpt>
      <trkpt lat="50.56426" lon="6.28993">
        <ele>422.64</ele>
        <time>2019-07-06T13:01:42Z</time>
      </trkpt>
      <trkpt lat="50.56438" lon="6.28961">
        <ele>426</ele>
        <time>2019-07-06T13:01:54Z</time>
      </trkpt>
      <trkpt lat="50.56449" lon="6.2893">
        <ele>428.89</ele>
        <time>2019-07-06T13:02:05Z</time>
      </trkpt>
      <trkpt lat="50.56453" lon="6.2892">
        <ele>429.85</ele>
        <time>2019-07-06T13:02:09Z</time>
      </trkpt>
      <trkpt lat="50.56463" lon="6.28894">
        <ele>433.21</ele>
        <time>2019-07-06T13:02:19Z</time>
      </trkpt>
      <trkpt lat="50.56475" lon="6.28863">
        <ele>436.1</ele>
        <time>2019-07-06T13:02:31Z</time>
      </trkpt>
      <trkpt lat="50.56477" lon="6.28851">
        <ele>437.54</ele>
        <time>2019-07-06T13:02:35Z</time>
      </trkpt>
      <trkpt lat="50.56479" lon="6.28846">
        <ele>438.02</ele>
        <time>2019-07-06T13:02:37Z</time>
      </trkpt>
      <trkpt lat="50.5648" lon="6.28843">
        <ele>438.98</ele>
        <time>2019-07-06T13:02:38Z</time>
      </trkpt>
      <trkpt lat="50.56486" lon="6.28816">
        <ele>441.86</ele>
        <time>2019-07-06T13:02:47Z</time>
      </trkpt>
      <trkpt lat="50.5649" lon="6.28782">
        <ele>444.75</ele>
        <time>2019-07-06T13:02:56Z</time>
      </trkpt>
      <trkpt lat="50.56496" lon="6.28754">
        <ele>447.63</ele>
        <time>2019-07-06T13:03:07Z</time>
      </trkpt>
      <trkpt lat="50.565" lon="6.2872">
        <ele>451</ele>
        <time>2019-07-06T13:03:18Z</time>
      </trkpt>
      <trkpt lat="50.56503" lon="6.28713">
        <ele>451.48</ele>
        <time>2019-07-06T13:03:21Z</time>
      </trkpt>
      <trkpt lat="50.56505" lon="6.28674">
        <ele>453.88</ele>
        <time>2019-07-06T13:03:32Z</time>
      </trkpt>
      <trkpt lat="50.56508" lon="6.28635">
        <ele>456.76</ele>
        <time>2019-07-06T13:03:44Z</time>
      </trkpt>
      <trkpt lat="50.56506" lon="6.286">
        <ele>460.13</ele>
        <time>2019-07-06T13:03:54Z</time>
      </trkpt>
      <trkpt lat="50.56505" lon="6.28557">
        <ele>463.49</ele>
        <time>2019-07-06T13:04:07Z</time>
      </trkpt>
      <trkpt lat="50.56506" lon="6.28514">
        <ele>466.38</ele>
        <time>2019-07-06T13:04:21Z</time>
      </trkpt>
      <trkpt lat="50.56507" lon="6.28499">
        <ele>467.82</ele>
        <time>2019-07-06T13:04:26Z</time>
      </trkpt>
      <trkpt lat="50.56505" lon="6.28453">
        <ele>470.7</ele>
        <time>2019-07-06T13:04:40Z</time>
      </trkpt>
      <trkpt lat="50.56502" lon="6.28413">
        <ele>473.11</ele>
        <time>2019-07-06T13:04:53Z</time>
      </trkpt>
      <trkpt lat="50.56498" lon="6.2837">
        <ele>475.51</ele>
        <time>2019-07-06T13:05:07Z</time>
      </trkpt>
      <trkpt lat="50.56494" lon="6.2833">
        <ele>478.39</ele>
        <time>2019-07-06T13:05:19Z</time>
      </trkpt>
      <trkpt lat="50.56485" lon="6.28298">
        <ele>480.32</ele>
        <time>2019-07-06T13:05:30Z</time>
      </trkpt>
      <trkpt lat="50.56474" lon="6.28267">
        <ele>483.2</ele>
        <time>2019-07-06T13:05:41Z</time>
      </trkpt>
      <trkpt lat="50.56459" lon="6.2823">
        <ele>485.6</ele>
        <time>2019-07-06T13:05:54Z</time>
      </trkpt>
      <trkpt lat="50.56446" lon="6.28205">
        <ele>488.49</ele>
        <time>2019-07-06T13:06:04Z</time>
      </trkpt>
      <trkpt lat="50.56445" lon="6.28203">
        <ele>488.49</ele>
        <time>2019-07-06T13:06:05Z</time>
      </trkpt>
      <trkpt lat="50.56445" lon="6.282">
        <ele>488.97</ele>
        <time>2019-07-06T13:06:06Z</time>
      </trkpt>
      <trkpt lat="50.56441" lon="6.28198">
        <ele>489.45</ele>
        <time>2019-07-06T13:06:18Z</time>
      </trkpt>
      <trkpt lat="50.56438" lon="6.28194">
        <ele>489.45</ele>
        <time>2019-07-06T13:06:34Z</time>
      </trkpt>
      <trkpt lat="50.56437" lon="6.28191">
        <ele>489.45</ele>
        <time>2019-07-06T13:06:49Z</time>
      </trkpt>
      <trkpt lat="50.56437" lon="6.28188">
        <ele>490.41</ele>
        <time>2019-07-06T13:07:07Z</time>
      </trkpt>
      <trkpt lat="50.56438" lon="6.28186">
        <ele>490.41</ele>
        <time>2019-07-06T13:07:15Z</time>
      </trkpt>
      <trkpt lat="50.56439" lon="6.28184">
        <ele>490.41</ele>
        <time>2019-07-06T13:07:16Z</time>
      </trkpt>
      <trkpt lat="50.56439" lon="6.28181">
        <ele>490.41</ele>
        <time>2019-07-06T13:07:17Z</time>
      </trkpt>
      <trkpt lat="50.56439" lon="6.28178">
        <ele>490.41</ele>
        <time>2019-07-06T13:07:18Z</time>
      </trkpt>
      <trkpt lat="50.56438" lon="6.28175">
        <ele>490.41</ele>
        <time>2019-07-06T13:07:19Z</time>
      </trkpt>
      <trkpt lat="50.56437" lon="6.28172">
        <ele>490.89</ele>
        <time>2019-07-06T13:07:20Z</time>
      </trkpt>
      <trkpt lat="50.56431" lon="6.28138">
        <ele>494.26</ele>
        <time>2019-07-06T13:07:30Z</time>
      </trkpt>
      <trkpt lat="50.56419" lon="6.28098">
        <ele>497.62</ele>
        <time>2019-07-06T13:07:43Z</time>
      </trkpt>
      <trkpt lat="50.56417" lon="6.28089">
        <ele>498.1</ele>
        <time>2019-07-06T13:07:46Z</time>
      </trkpt>
      <trkpt lat="50.56404" lon="6.28053">
        <ele>500.98</ele>
        <time>2019-07-06T13:08:00Z</time>
      </trkpt>
      <trkpt lat="50.56402" lon="6.28034">
        <ele>501.46</ele>
        <time>2019-07-06T13:08:06Z</time>
      </trkpt>
      <trkpt lat="50.56402" lon="6.28031">
        <ele>501.95</ele>
        <time>2019-07-06T13:08:07Z</time>
      </trkpt>
      <trkpt lat="50.56402" lon="6.28019">
        <ele>502.43</ele>
        <time>2019-07-06T13:08:11Z</time>
      </trkpt>
      <trkpt lat="50.56407" lon="6.27978">
        <ele>504.35</ele>
        <time>2019-07-06T13:08:23Z</time>
      </trkpt>
      <trkpt lat="50.56406" lon="6.2793">
        <ele>505.79</ele>
        <time>2019-07-06T13:08:35Z</time>
      </trkpt>
      <trkpt lat="50.56403" lon="6.27867">
        <ele>508.67</ele>
        <time>2019-07-06T13:08:50Z</time>
      </trkpt>
      <trkpt lat="50.56393" lon="6.27824">
        <ele>511.56</ele>
        <time>2019-07-06T13:09:03Z</time>
      </trkpt>
      <trkpt lat="50.56389" lon="6.27784">
        <ele>514.44</ele>
        <time>2019-07-06T13:09:14Z</time>
      </trkpt>
      <trkpt lat="50.56384" lon="6.27747">
        <ele>517.81</ele>
        <time>2019-07-06T13:09:26Z</time>
      </trkpt>
      <trkpt lat="50.5638" lon="6.27706">
        <ele>519.73</ele>
        <time>2019-07-06T13:09:37Z</time>
      </trkpt>
      <trkpt lat="50.56378" lon="6.27684">
        <ele>520.69</ele>
        <time>2019-07-06T13:09:43Z</time>
      </trkpt>
      <trkpt lat="50.56378" lon="6.27681">
        <ele>520.69</ele>
        <time>2019-07-06T13:09:44Z</time>
      </trkpt>
      <trkpt lat="50.56378" lon="6.27677">
        <ele>521.65</ele>
        <time>2019-07-06T13:09:45Z</time>
      </trkpt>
      <trkpt lat="50.56376" lon="6.27623">
        <ele>524.54</ele>
        <time>2019-07-06T13:10:01Z</time>
      </trkpt>
      <trkpt lat="50.56381" lon="6.27575">
        <ele>527.9</ele>
        <time>2019-07-06T13:10:15Z</time>
      </trkpt>
      <trkpt lat="50.56384" lon="6.27564">
        <ele>528.38</ele>
        <time>2019-07-06T13:10:19Z</time>
      </trkpt>
      <trkpt lat="50.56387" lon="6.27545">
        <ele>529.34</ele>
        <time>2019-07-06T13:10:26Z</time>
      </trkpt>
      <trkpt lat="50.56389" lon="6.27542">
        <ele>529.82</ele>
        <time>2019-07-06T13:10:27Z</time>
      </trkpt>
      <trkpt lat="50.5639" lon="6.2754">
        <ele>529.82</ele>
        <time>2019-07-06T13:10:28Z</time>
      </trkpt>
      <trkpt lat="50.56391" lon="6.27537">
        <ele>530.3</ele>
        <time>2019-07-06T13:10:29Z</time>
      </trkpt>
      <trkpt lat="50.56392" lon="6.27534">
        <ele>530.3</ele>
        <time>2019-07-06T13:10:30Z</time>
      </trkpt>
      <trkpt lat="50.56405" lon="6.27492">
        <ele>531.75</ele>
        <time>2019-07-06T13:10:44Z</time>
      </trkpt>
      <trkpt lat="50.56412" lon="6.27458">
        <ele>532.71</ele>
        <time>2019-07-06T13:10:56Z</time>
      </trkpt>
    </trkseg>
  </trk>
</gpx>